Etusivu
METAR-TAF:

METAR-TAF

Lentoasemat :

Pickle Lake, Ontario, Kanada

Leveyspiiri: 51-27N, Pituuspiiri: 090-12W, korkeus merenpinnasta: 386 m

Tämänhetkinen sää

Tämä raportti tehtiin 59 minuuttia sitten, kello 23.00 UTC
Tuuli 10 kn lännestä puuskistuen 16 kn:hen
Lämpötila 8°C
Kosteus 36%
Ilmanpaine 1017 hPa
Näkyvyys: 14.5 km
selkeää

METAR: CYPL 082300Z AUTO 28010G16KT 9SM CLR 08/M06 A3002 RMK SLP186

Aika: 17:59 (23:59 UTC)

Sääennuste

Tämä raportti tehtiin 4 tuntia ja 20 minuuttia sitten, kello 19.39 UTC
Ennuste voimassa 08. päivästä klo 20 UTC - 09. päivään klo 08 UTC
Tuuli 8 kn lännestä/lounaasta
Näkyvyys: 10 km
Muutamia pilviä 2500 ft:n korkeudessa
Tulossa
09. päivästä klo 06 UTC - 09. päivään klo 08 UTC
Tuuli 8 kn lounaasta

TAF: CYPL 081939Z 0820/0908 25008KT P6SM FEW025 BECMG 0906/0908 23008KT RMK FCST BASED ON AUTO OBS. NXT FCST BY 090200Z

Säähavainnot ja -ennusteet yli 4000 lentoasemalta (METAR- ja TAF-raportit).

Käytössä olevat sääasemat on merkitty karttaan keltaisilla ja punaisilla pisteillä.

Aseta hiiri pisteen päälle nähdäksesi sääaseman nimen.

Klikkaa sitten nähdäksesi säähavainnot ja -ennusteet.

Kartan vaihtaminen: klikkaa mustalla rastilla varustettuja vihreitä pisteitä, niin voit zoomata sisään; viivalla varustettua vihreää pistettä, niin voit zoomata ulos tai vihreitä nuolia, niin pääset viereisille kartoille.


METAR-TAF: